NWWT weather

Oua Tom Airport
La Foa, New Caledonia

Public forecast

Using degrees Celsius for public forecast. Weather courtesy of forecast.io.

METAR (pilot weather report)

Closest report is La Tontouta International Airport, 22.8 nm (42.3 km) ESE. Retrieved 2018/05/25 08:30 UTC (0 seconds ago):

NWWW 250830Z AUTO 15004KT 110V180 9999 FEW036 BKN180 BKN220 21/17 Q1017 NOSIG

TAF (pilot weather forecast)

Closest forecast is La Tontouta International Airport, 22.8 nm (42.3 km) ESE. Retrieved 2018/05/25 06:00 UTC (2 hours ago):

TAF NWWW 250500Z 2506/2606 17012KT 9999 SCT035 BECMG 2506/2508 VRB02KT BECMG 2523/2601 15018KT TEMPO 2601/2606 15020G30KT